createdAt,value
2019-05-23T00:00:26.585Z,312.41
2019-05-23T00:01:26.577Z,313.07
2019-05-23T00:02:26.577Z,314.18
2019-05-23T00:03:26.555Z,313.13
2019-05-23T00:04:26.568Z,313.23
2019-05-23T00:05:26.535Z,312.54
2019-05-23T00:06:26.626Z,313.08
2019-05-23T00:07:26.503Z,312.83
2019-05-23T00:08:26.504Z,312.45
2019-05-23T00:09:26.488Z,312.51
2019-05-23T00:10:26.521Z,312.34
2019-05-23T00:11:26.466Z,312.39
2019-05-23T00:12:26.451Z,311.90
2019-05-23T00:13:26.441Z,313.23
2019-05-23T00:14:26.435Z,312.90
2019-05-23T00:15:26.417Z,313.13
2019-05-23T00:16:26.433Z,313.22
2019-05-23T00:17:26.393Z,312.14
2019-05-23T00:18:26.384Z,313.75
2019-05-23T00:19:26.375Z,314.58
2019-05-23T00:20:26.363Z,314.45
2019-05-23T00:21:26.357Z,315.64
2019-05-23T00:22:26.539Z,315.63
2019-05-23T00:23:26.327Z,314.54
2019-05-23T00:24:26.329Z,314.04
2019-05-23T00:25:26.305Z,314.80
2019-05-23T00:26:26.296Z,314.71
2019-05-23T00:27:26.279Z,315.43
2019-05-23T00:28:26.268Z,316.88
2019-05-23T00:29:26.263Z,316.19
2019-05-23T00:30:26.265Z,316.35
2019-05-23T00:31:26.238Z,315.79
2019-05-23T00:32:26.220Z,315.70
2019-05-23T00:33:26.207Z,316.58
2019-05-23T00:34:26.263Z,316.34
2019-05-23T00:35:26.190Z,316.94
2019-05-23T00:36:26.202Z,316.54
2019-05-23T00:37:26.170Z,316.50
2019-05-23T00:38:26.156Z,315.66
2019-05-23T00:39:26.149Z,316.01
2019-05-23T00:40:26.131Z,316.18
2019-05-23T00:41:26.127Z,316.87
2019-05-23T00:42:26.132Z,314.62
2019-05-23T00:43:26.102Z,316.27
2019-05-23T00:44:26.086Z,315.40
2019-05-23T00:45:26.116Z,315.79
2019-05-23T00:46:26.087Z,315.27
2019-05-23T00:47:26.060Z,315.36
2019-05-23T00:48:26.044Z,316.45
2019-05-23T00:49:26.076Z,316.01
2019-05-23T00:50:26.023Z,316.76
2019-05-23T00:51:26.011Z,316.77
2019-05-23T00:52:25.993Z,316.05
2019-05-23T00:53:25.989Z,315.84
2019-05-23T00:54:25.982Z,316.33
2019-05-23T00:55:25.982Z,316.23
2019-05-23T00:56:25.948Z,315.34
2019-05-23T00:57:25.942Z,315.54
2019-05-23T00:58:25.942Z,315.36
2019-05-23T00:59:27.746Z,315.40
2019-05-23T01:00:25.924Z,316.09
2019-05-23T01:01:25.894Z,314.25
2019-05-23T01:02:25.885Z,315.82
2019-05-23T01:03:25.866Z,315.62
2019-05-23T01:04:25.856Z,315.88
2019-05-23T01:05:25.852Z,315.24
2019-05-23T01:06:25.860Z,315.91
2019-05-23T01:07:25.828Z,316.22
2019-05-23T01:08:25.810Z,316.04
2019-05-23T01:09:25.795Z,316.22
2019-05-23T01:10:25.792Z,315.79
2019-05-23T01:11:25.784Z,315.77
2019-05-23T01:12:25.838Z,314.58
2019-05-23T01:13:25.769Z,315.11
2019-05-23T01:14:25.749Z,315.77
2019-05-23T01:15:25.730Z,315.54
2019-05-23T01:16:25.718Z,315.03
2019-05-23T01:17:25.714Z,315.48
2019-05-23T01:18:25.704Z,314.57
2019-05-23T01:19:25.720Z,314.69
2019-05-23T01:20:25.681Z,315.55
2019-05-23T01:21:25.670Z,315.22
2019-05-23T01:22:25.654Z,315.04
2019-05-23T01:23:25.652Z,316.02
2019-05-23T01:24:25.628Z,315.40
2019-05-23T01:25:25.640Z,315.78
2019-05-23T01:26:25.607Z,315.68
2019-05-23T01:27:25.596Z,315.55
2019-05-23T01:28:25.588Z,315.25
2019-05-23T01:29:25.594Z,315.61
2019-05-23T01:30:25.566Z,315.28
2019-05-23T01:31:25.575Z,315.28
2019-05-23T01:32:25.542Z,315.41
2019-05-23T01:33:25.529Z,315.18
2019-05-23T01:34:25.529Z,315.72
2019-05-23T01:35:25.501Z,314.88
2019-05-23T01:36:25.497Z,314.82
2019-05-23T01:37:25.494Z,314.96
2019-05-23T01:38:25.497Z,315.58
2019-05-23T01:39:25.631Z,314.66
2019-05-23T01:40:25.457Z,315.57
2019-05-23T01:41:25.441Z,314.45
2019-05-23T01:42:25.433Z,313.90
2019-05-23T01:43:25.419Z,314.21
2019-05-23T01:44:25.405Z,313.15
2019-05-23T01:45:25.419Z,313.32
2019-05-23T01:46:25.383Z,313.69
2019-05-23T01:47:25.379Z,314.49
2019-05-23T01:48:25.369Z,313.81
2019-05-23T01:49:25.351Z,313.76
2019-05-23T01:50:25.350Z,313.09
2019-05-23T01:51:25.331Z,312.60
2019-05-23T01:52:25.366Z,313.14
2019-05-23T01:53:25.305Z,313.39
2019-05-23T01:54:25.297Z,312.75
2019-05-23T01:55:25.291Z,312.50
2019-05-23T01:56:25.277Z,312.58
2019-05-23T01:57:25.270Z,312.70
2019-05-23T01:58:25.249Z,313.35
2019-05-23T01:59:25.263Z,312.75
2019-05-23T02:00:25.229Z,312.47
2019-05-23T02:01:25.225Z,312.20
2019-05-23T02:02:25.221Z,312.16
2019-05-23T02:03:25.204Z,311.95
2019-05-23T02:04:25.212Z,312.39
2019-05-23T02:05:25.206Z,312.36
2019-05-23T02:06:25.186Z,312.61
2019-05-23T02:07:25.148Z,312.61
2019-05-23T02:08:25.142Z,312.91
2019-05-23T02:09:25.131Z,312.57
2019-05-23T02:10:25.119Z,312.34
2019-05-23T02:11:25.107Z,311.60
2019-05-23T02:12:25.117Z,311.55
2019-05-23T02:13:25.089Z,311.92
2019-05-23T02:14:25.132Z,311.88
2019-05-23T02:15:25.068Z,311.71
2019-05-23T02:16:25.055Z,311.72
2019-05-23T02:17:25.048Z,311.82
2019-05-23T02:18:25.032Z,312.42
2019-05-23T02:19:25.020Z,313.55
2019-05-23T02:20:25.051Z,314.53
2019-05-23T02:21:24.994Z,312.86
2019-05-23T02:22:24.989Z,312.71
2019-05-23T02:23:24.975Z,313.21
2019-05-23T02:24:24.962Z,312.03
2019-05-23T02:25:24.954Z,311.84
2019-05-23T02:26:24.952Z,312.06
2019-05-23T02:27:24.935Z,311.60
2019-05-23T02:28:24.926Z,311.22
2019-05-23T02:29:24.906Z,311.55
2019-05-23T02:30:34.747Z,311.56
2019-05-23T02:31:25.906Z,311.35
2019-05-23T02:32:24.882Z,310.10
2019-05-23T02:33:24.870Z,310.93
2019-05-23T02:34:24.878Z,311.12
2019-05-23T02:35:24.862Z,310.91
2019-05-23T02:36:24.834Z,310.57
2019-05-23T02:37:24.832Z,310.59
2019-05-23T02:38:24.828Z,310.69
2019-05-23T02:39:24.802Z,310.89
2019-05-23T02:40:24.808Z,310.82
2019-05-23T02:41:24.786Z,310.22
2019-05-23T02:42:24.770Z,310.85
2019-05-23T02:43:24.759Z,310.22
2019-05-23T02:44:24.768Z,310.65
2019-05-23T02:45:24.735Z,309.85
2019-05-23T02:46:24.743Z,310.29
2019-05-23T02:47:24.722Z,310.22
2019-05-23T02:48:24.696Z,310.10
2019-05-23T02:49:24.695Z,310.91
2019-05-23T02:50:24.678Z,310.21
2019-05-23T02:51:24.669Z,310.19
2019-05-23T02:52:24.676Z,310.37
2019-05-23T02:53:24.643Z,310.04
2019-05-23T02:54:24.636Z,309.80
2019-05-23T02:55:24.633Z,310.63
2019-05-23T02:56:24.614Z,310.72
2019-05-23T02:57:24.602Z,310.31
2019-05-23T02:58:24.612Z,310.32
2019-05-23T02:59:24.585Z,310.27
2019-05-23T03:00:24.570Z,309.90
2019-05-23T03:01:24.564Z,310.71
2019-05-23T03:02:24.549Z,310.75
2019-05-23T03:03:24.535Z,311.37
2019-05-23T03:04:24.548Z,311.39
2019-05-23T03:05:24.555Z,311.48
2019-05-23T03:06:24.499Z,312.07
2019-05-23T03:07:24.498Z,311.32
2019-05-23T03:08:24.482Z,311.42
2019-05-23T03:09:24.468Z,311.75
2019-05-23T03:10:24.454Z,311.78
2019-05-23T03:11:24.469Z,312.66
2019-05-23T03:12:25.417Z,312.53
2019-05-23T03:13:24.433Z,312.27
2019-05-23T03:14:24.413Z,312.10
2019-05-23T03:15:24.426Z,311.63
2019-05-23T03:16:24.389Z,311.03
2019-05-23T03:17:24.377Z,312.50
2019-05-23T03:18:24.382Z,312.03
2019-05-23T03:19:24.372Z,312.03
2019-05-23T03:20:24.347Z,312.39
2019-05-23T03:21:24.351Z,312.05
2019-05-23T03:22:24.352Z,312.04
2019-05-23T03:23:24.317Z,312.97
2019-05-23T03:24:24.309Z,312.73
2019-05-23T03:25:24.291Z,312.04
2019-05-23T03:26:24.279Z,312.07
2019-05-23T03:27:24.275Z,313.56
2019-05-23T03:28:24.279Z,313.45
2019-05-23T03:29:24.263Z,313.34
2019-05-23T03:30:24.254Z,313.65
2019-05-23T03:31:30.749Z,313.57
2019-05-23T03:32:25.230Z,313.13
2019-05-23T03:33:24.223Z,313.18
2019-05-23T03:34:24.201Z,312.75
2019-05-23T03:35:24.210Z,312.58
2019-05-23T03:36:24.334Z,313.40
2019-05-23T03:37:24.160Z,312.70
2019-05-23T03:38:24.146Z,312.96
2019-05-23T03:39:24.137Z,313.07
2019-05-23T03:40:24.322Z,313.04
2019-05-23T03:41:24.141Z,312.31
2019-05-23T03:42:24.120Z,313.18
2019-05-23T03:43:24.189Z,313.00
2019-05-23T03:44:24.084Z,312.65
2019-05-23T03:45:24.074Z,312.73
2019-05-23T03:46:24.065Z,313.08
2019-05-23T03:47:24.058Z,313.11
2019-05-23T03:48:24.050Z,313.74
2019-05-23T03:49:24.027Z,312.49
2019-05-23T03:50:24.034Z,312.83
2019-05-23T03:51:24.006Z,312.55
2019-05-23T03:52:23.997Z,311.75
2019-05-23T03:53:23.996Z,313.07
2019-05-23T03:54:23.979Z,313.24
2019-05-23T03:55:24.059Z,312.55
2019-05-23T03:56:23.946Z,313.07
2019-05-23T03:57:25.828Z,312.71
2019-05-23T03:58:23.926Z,313.21
2019-05-23T03:59:23.944Z,312.60
2019-05-23T04:00:23.908Z,313.21
2019-05-23T04:01:23.899Z,312.28
2019-05-23T04:02:23.891Z,313.01
2019-05-23T04:03:23.887Z,312.75
2019-05-23T04:04:23.914Z,312.54
2019-05-23T04:05:23.872Z,312.60
2019-05-23T04:06:23.840Z,312.63
2019-05-23T04:07:23.833Z,312.03
2019-05-23T04:08:23.824Z,312.34
2019-05-23T04:09:23.811Z,312.95
2019-05-23T04:10:23.819Z,313.46
2019-05-23T04:11:23.785Z,313.37
2019-05-23T04:12:23.905Z,312.55
2019-05-23T04:13:23.801Z,312.82
2019-05-23T04:14:23.753Z,312.50
2019-05-23T04:15:23.748Z,312.77
2019-05-23T04:16:23.735Z,311.62
2019-05-23T04:17:23.729Z,313.34
2019-05-23T04:18:23.716Z,312.62
2019-05-23T04:19:23.716Z,312.50
2019-05-23T04:20:23.689Z,312.85
2019-05-23T04:21:23.685Z,311.74
2019-05-23T04:22:23.677Z,311.72
2019-05-23T04:23:23.657Z,312.04
2019-05-23T04:24:23.640Z,311.57
2019-05-23T04:25:23.630Z,311.17
2019-05-23T04:26:23.627Z,311.53
2019-05-23T04:27:23.609Z,312.23
2019-05-23T04:28:23.625Z,312.02
2019-05-23T04:29:23.650Z,312.32
2019-05-23T04:30:23.575Z,312.52
2019-05-23T04:31:23.563Z,311.59
2019-05-23T04:32:23.558Z,313.15
2019-05-23T04:33:23.540Z,313.04
2019-05-23T04:34:23.536Z,313.85
2019-05-23T04:35:23.538Z,314.17
2019-05-23T04:36:23.613Z,314.74
2019-05-23T04:37:23.499Z,314.87
2019-05-23T04:38:23.515Z,313.95
2019-05-23T04:39:23.507Z,314.71
2019-05-23T04:40:23.480Z,314.60
2019-05-23T04:41:23.479Z,315.10
2019-05-23T04:42:23.442Z,316.16
2019-05-23T04:43:23.441Z,316.86
2019-05-23T04:44:23.428Z,317.39
2019-05-23T04:45:23.407Z,317.77
2019-05-23T04:46:23.389Z,316.61
2019-05-23T04:47:23.406Z,316.07
2019-05-23T04:48:23.396Z,317.27
2019-05-23T04:49:23.369Z,317.46
2019-05-23T04:50:23.353Z,318.76
2019-05-23T04:51:23.349Z,317.73
2019-05-23T04:52:23.329Z,318.57
2019-05-23T04:53:23.327Z,317.37
2019-05-23T04:54:23.325Z,317.44
2019-05-23T04:55:23.305Z,318.78
2019-05-23T04:56:23.285Z,318.24
2019-05-23T04:57:23.356Z,319.73
2019-05-23T04:58:23.263Z,318.62
2019-05-23T04:59:23.259Z,318.36
2019-05-23T05:00:23.256Z,319.22
2019-05-23T05:01:23.229Z,317.35
2019-05-23T05:02:26.736Z,316.90
2019-05-23T05:03:23.225Z,314.55
2019-05-23T05:04:23.230Z,314.32
2019-05-23T05:05:23.201Z,315.00
2019-05-23T05:06:23.174Z,314.20
2019-05-23T05:07:23.171Z,314.44
2019-05-23T05:08:23.165Z,313.81
2019-05-23T05:09:23.161Z,313.33
2019-05-23T05:10:23.137Z,313.33
2019-05-23T05:11:23.120Z,313.56
2019-05-23T05:12:23.124Z,314.23
2019-05-23T05:13:23.091Z,313.89
2019-05-23T05:14:23.085Z,311.19
2019-05-23T05:15:23.091Z,313.38
2019-05-23T05:16:23.064Z,313.00
2019-05-23T05:17:23.118Z,311.46
2019-05-23T05:18:23.036Z,311.96
2019-05-23T05:19:23.050Z,311.74
2019-05-23T05:20:23.968Z,310.76
2019-05-23T05:21:23.010Z,311.43
2019-05-23T05:22:22.993Z,310.99
2019-05-23T05:23:22.989Z,312.74
2019-05-23T05:24:22.975Z,311.29
2019-05-23T05:25:22.962Z,311.87
2019-05-23T05:26:22.953Z,311.43
2019-05-23T05:27:22.939Z,311.10
2019-05-23T05:28:22.926Z,310.82
2019-05-23T05:29:22.914Z,309.45
2019-05-23T05:30:22.910Z,310.86
2019-05-23T05:31:22.936Z,312.66
2019-05-23T05:32:22.902Z,310.73
2019-05-23T05:33:22.874Z,310.96
2019-05-23T05:34:22.889Z,311.55
2019-05-23T05:35:22.943Z,309.62
2019-05-23T05:36:22.835Z,309.34
2019-05-23T05:37:22.930Z,309.59
2019-05-23T05:38:22.809Z,309.41
2019-05-23T05:39:22.797Z,308.32
2019-05-23T05:40:22.789Z,306.92
2019-05-23T05:41:22.820Z,307.60
2019-05-23T05:42:22.791Z,305.53
2019-05-23T05:43:22.758Z,306.72
2019-05-23T05:44:22.754Z,308.88
2019-05-23T05:45:22.735Z,308.06
2019-05-23T05:46:22.732Z,310.08
2019-05-23T05:47:22.717Z,307.83
2019-05-23T05:48:22.723Z,309.07
2019-05-23T05:49:22.701Z,310.43
2019-05-23T05:50:22.673Z,310.13
2019-05-23T05:51:22.667Z,309.54
2019-05-23T05:52:22.654Z,309.81
2019-05-23T05:53:22.640Z,310.65
2019-05-23T05:54:22.651Z,312.20
2019-05-23T05:55:22.641Z,310.21
2019-05-23T05:56:22.620Z,311.18
2019-05-23T05:57:22.654Z,312.33
2019-05-23T05:58:22.691Z,311.53
2019-05-23T05:59:22.589Z,311.52
2019-05-23T06:00:22.575Z,312.06
2019-05-23T06:01:33.460Z,312.03
2019-05-23T06:02:23.591Z,310.88
2019-05-23T06:03:22.561Z,311.90
2019-05-23T06:04:22.522Z,312.32
2019-05-23T06:05:22.512Z,312.80
2019-05-23T06:06:22.498Z,312.47
2019-05-23T06:07:22.503Z,313.79
2019-05-23T06:08:22.488Z,312.72
2019-05-23T06:09:22.457Z,312.76
2019-05-23T06:10:22.445Z,312.72
2019-05-23T06:11:22.442Z,313.33
2019-05-23T06:12:22.435Z,311.74
2019-05-23T06:13:22.433Z,311.96
2019-05-23T06:14:22.405Z,312.39
2019-05-23T06:15:22.393Z,312.44
2019-05-23T06:16:22.394Z,311.11
2019-05-23T06:17:22.371Z,312.00
2019-05-23T06:18:22.366Z,311.60
2019-05-23T06:19:22.351Z,312.41
2019-05-23T06:20:22.337Z,313.22
2019-05-23T06:21:22.346Z,312.93
2019-05-23T06:22:22.314Z,314.55
2019-05-23T06:23:22.317Z,311.88
2019-05-23T06:24:38.934Z,312.41
2019-05-23T06:25:23.290Z,311.93
2019-05-23T06:26:22.298Z,312.33
2019-05-23T06:27:22.257Z,312.10
2019-05-23T06:28:22.307Z,312.67
2019-05-23T06:29:22.703Z,312.68
2019-05-23T06:30:22.226Z,312.18
2019-05-23T06:31:22.235Z,312.18
2019-05-23T06:32:22.225Z,311.52
2019-05-23T06:33:24.066Z,311.21
2019-05-23T06:34:22.296Z,311.96
2019-05-23T06:35:22.179Z,312.22
2019-05-23T06:36:22.160Z,312.10
2019-05-23T06:37:22.322Z,312.51
2019-05-23T06:38:22.163Z,313.32
2019-05-23T06:39:22.130Z,314.39
2019-05-23T06:40:22.129Z,314.23
2019-05-23T06:41:22.135Z,313.83
2019-05-23T06:42:22.094Z,313.53
2019-05-23T06:43:22.093Z,313.15
2019-05-23T06:44:22.072Z,312.62
2019-05-23T06:45:22.057Z,311.69
2019-05-23T06:46:22.070Z,312.43
2019-05-23T06:47:22.047Z,312.83
2019-05-23T06:48:22.023Z,312.58
2019-05-23T06:49:22.014Z,312.50
2019-05-23T06:50:22.008Z,312.92
2019-05-23T06:51:22.025Z,313.10
2019-05-23T06:52:21.990Z,314.49
2019-05-23T06:53:22.001Z,314.18
2019-05-23T06:54:21.970Z,314.34
2019-05-23T06:55:21.946Z,313.51
2019-05-23T06:56:21.937Z,314.66
2019-05-23T06:57:21.931Z,312.81
2019-05-23T06:58:22.852Z,312.35
2019-05-23T06:59:21.924Z,313.10
2019-05-23T07:00:21.891Z,314.32
2019-05-23T07:01:21.890Z,313.89
2019-05-23T07:02:21.870Z,312.20
2019-05-23T07:03:21.872Z,313.27
2019-05-23T07:04:21.850Z,312.11
2019-05-23T07:05:21.882Z,312.67
2019-05-23T07:06:21.851Z,310.83
2019-05-23T07:07:21.812Z,310.85
2019-05-23T07:08:25.178Z,310.05
2019-05-23T07:09:21.799Z,310.88
2019-05-23T07:10:21.795Z,310.21
2019-05-23T07:11:21.780Z,310.70
2019-05-23T07:12:21.761Z,310.21
2019-05-23T07:13:21.747Z,312.17
2019-05-23T07:14:21.756Z,312.03
2019-05-23T07:15:21.729Z,309.75
2019-05-23T07:16:21.710Z,310.95
2019-05-23T07:17:21.723Z,310.75
2019-05-23T07:18:21.700Z,310.56
2019-05-23T07:19:21.676Z,311.15
2019-05-23T07:20:21.675Z,310.41
2019-05-23T07:21:21.661Z,310.19
2019-05-23T07:22:21.648Z,309.82
2019-05-23T07:23:21.661Z,311.25
2019-05-23T07:24:21.625Z,310.92
2019-05-23T07:25:21.638Z,311.04
2019-05-23T07:26:21.605Z,311.14
2019-05-23T07:27:21.600Z,311.66
2019-05-23T07:28:21.586Z,311.86
2019-05-23T07:29:21.572Z,312.10
2019-05-23T07:30:21.583Z,313.26
2019-05-23T07:31:21.563Z,310.85
2019-05-23T07:32:21.543Z,311.96
2019-05-23T07:33:21.543Z,311.49
2019-05-23T07:34:21.519Z,312.74
2019-05-23T07:35:21.510Z,311.58
2019-05-23T07:36:21.503Z,311.50
2019-05-23T07:37:21.479Z,311.70
2019-05-23T07:38:21.493Z,312.50
2019-05-23T07:39:21.458Z,311.27
2019-05-23T07:40:21.455Z,310.89
2019-05-23T07:41:21.536Z,311.72
2019-05-23T07:42:21.425Z,311.69
2019-05-23T07:43:21.546Z,311.86
2019-05-23T07:44:21.427Z,314.84
2019-05-23T07:45:21.561Z,313.66
2019-05-23T07:46:21.382Z,312.30
2019-05-23T07:47:21.374Z,312.39
2019-05-23T07:48:21.380Z,311.79
2019-05-23T07:49:21.348Z,311.19
2019-05-23T07:50:21.373Z,311.18
2019-05-23T07:51:21.343Z,311.63
2019-05-23T07:52:21.311Z,311.79
2019-05-23T07:53:21.301Z,312.15
2019-05-23T07:54:21.296Z,310.77
2019-05-23T07:55:21.281Z,311.88
2019-05-23T07:56:21.290Z,310.98
2019-05-23T07:57:21.252Z,311.85
2019-05-23T07:58:21.262Z,311.21
2019-05-23T07:59:21.236Z,310.20
2019-05-23T08:00:21.228Z,310.26
2019-05-23T08:01:21.212Z,310.12
2019-05-23T08:02:25.521Z,311.35
2019-05-23T08:03:21.223Z,310.49
2019-05-23T08:04:22.465Z,310.35
2019-05-23T08:05:21.173Z,311.50
2019-05-23T08:06:21.166Z,310.84
2019-05-23T08:07:21.142Z,309.50
2019-05-23T08:08:21.126Z,309.82
2019-05-23T08:09:21.145Z,311.11
2019-05-23T08:10:33.158Z,310.83
2019-05-23T08:11:22.096Z,309.20
2019-05-23T08:12:21.085Z,308.91
2019-05-23T08:13:21.084Z,310.04
2019-05-23T08:14:21.066Z,308.45
2019-05-23T08:15:21.051Z,309.65
2019-05-23T08:16:21.050Z,310.91
2019-05-23T08:17:21.047Z,310.32
2019-05-23T08:18:21.080Z,309.98
2019-05-23T08:19:21.017Z,309.96
2019-05-23T08:20:20.987Z,310.62
2019-05-23T08:21:20.992Z,310.52
2019-05-23T08:22:20.967Z,308.58
2019-05-23T08:23:20.958Z,309.83
2019-05-23T08:24:20.952Z,309.25
2019-05-23T08:25:20.944Z,309.75
2019-05-23T08:26:20.945Z,308.86
2019-05-23T08:27:20.912Z,308.39
2019-05-23T08:28:20.906Z,308.75
2019-05-23T08:29:27.991Z,308.52
2019-05-23T08:30:21.879Z,309.44
2019-05-23T08:31:20.864Z,308.90
2019-05-23T08:32:20.858Z,310.14
2019-05-23T08:33:20.849Z,308.79
2019-05-23T08:34:37.846Z,308.82
2019-05-23T08:35:21.827Z,309.49
2019-05-23T08:36:20.818Z,310.90
2019-05-23T08:37:20.802Z,308.71
2019-05-23T08:38:20.788Z,308.73
2019-05-23T08:39:20.781Z,309.35
2019-05-23T08:40:20.768Z,309.31
2019-05-23T08:41:20.771Z,310.28
2019-05-23T08:42:20.740Z,310.50
2019-05-23T08:43:20.735Z,311.84
2019-05-23T08:44:20.734Z,310.61
2019-05-23T08:45:20.705Z,308.78
2019-05-23T08:46:20.700Z,309.09
2019-05-23T08:47:20.690Z,309.11
2019-05-23T08:48:20.694Z,309.48
2019-05-23T08:49:20.678Z,310.05
2019-05-23T08:50:20.678Z,311.23
2019-05-23T08:51:20.662Z,313.10
2019-05-23T08:52:20.639Z,311.16
2019-05-23T08:53:20.613Z,309.39
2019-05-23T08:54:20.606Z,309.07
2019-05-23T08:55:20.611Z,309.57
2019-05-23T08:56:20.583Z,309.85
2019-05-23T08:57:20.598Z,309.33
2019-05-23T08:58:20.583Z,309.80
2019-05-23T08:59:20.549Z,308.80
2019-05-23T09:00:20.597Z,309.49
2019-05-23T09:01:20.537Z,307.57
2019-05-23T09:02:20.511Z,309.96
2019-05-23T09:03:20.497Z,310.35
2019-05-23T09:04:20.511Z,309.93
2019-05-23T09:05:20.495Z,310.20
2019-05-23T09:06:20.471Z,311.94
2019-05-23T09:07:20.501Z,311.28
2019-05-23T09:08:20.448Z,311.23
2019-05-23T09:09:29.738Z,308.92
2019-05-23T09:10:21.426Z,308.97
2019-05-23T09:11:20.411Z,310.00
2019-05-23T09:12:20.407Z,308.57
2019-05-23T09:13:20.409Z,310.18
2019-05-23T09:14:20.394Z,310.41
2019-05-23T09:15:20.377Z,308.96
2019-05-23T09:16:20.351Z,310.00
2019-05-23T09:17:20.344Z,310.59
2019-05-23T09:18:20.337Z,309.30
2019-05-23T09:19:20.351Z,308.51
2019-05-23T09:20:20.305Z,310.36
2019-05-23T09:21:20.300Z,308.60
2019-05-23T09:22:20.289Z,308.37
2019-05-23T09:23:20.291Z,308.74
2019-05-23T09:24:20.264Z,310.26
2019-05-23T09:25:20.248Z,310.37
2019-05-23T09:26:20.241Z,309.65
2019-05-23T09:27:20.231Z,309.73
2019-05-23T09:28:20.217Z,310.16
2019-05-23T09:29:20.249Z,309.30
2019-05-23T09:30:20.197Z,309.49
2019-05-23T09:31:20.178Z,309.07
2019-05-23T09:32:20.184Z,309.89
2019-05-23T09:33:20.170Z,308.50
2019-05-23T09:34:20.149Z,308.90
2019-05-23T09:35:22.178Z,309.62
2019-05-23T09:36:20.126Z,311.04
2019-05-23T09:37:20.161Z,312.06
2019-05-23T09:38:20.116Z,309.12
2019-05-23T09:39:20.115Z,308.36
2019-05-23T09:40:20.100Z,309.11
2019-05-23T09:41:20.069Z,308.07
2019-05-23T09:42:20.057Z,308.14
2019-05-23T09:43:20.047Z,309.38
2019-05-23T09:44:20.053Z,309.58
2019-05-23T09:45:20.026Z,310.83
2019-05-23T09:46:20.013Z,310.49
2019-05-23T09:47:20.113Z,308.88
2019-05-23T09:48:19.987Z,309.27
2019-05-23T09:49:19.982Z,309.66
2019-05-23T09:50:20.010Z,309.58
2019-05-23T09:51:19.982Z,309.19
2019-05-23T09:52:19.943Z,307.88
2019-05-23T09:53:19.933Z,310.25
2019-05-23T09:54:19.920Z,309.61
2019-05-23T09:55:19.914Z,307.46
2019-05-23T09:56:19.896Z,307.58
2019-05-23T09:57:19.921Z,307.05
2019-05-23T09:58:19.872Z,307.95
2019-05-23T09:59:19.865Z,307.39
2019-05-23T10:00:19.853Z,308.38
2019-05-23T10:01:19.968Z,310.12
2019-05-23T10:02:19.852Z,308.87
2019-05-23T10:03:19.817Z,308.62
2019-05-23T10:04:19.835Z,309.02
2019-05-23T10:05:40.194Z,309.16
2019-05-23T10:06:20.783Z,308.75
2019-05-23T10:07:19.780Z,308.17
2019-05-23T10:08:19.764Z,309.25
2019-05-23T10:09:19.756Z,310.21
2019-05-23T10:10:19.734Z,307.93
2019-05-23T10:11:19.729Z,308.97
2019-05-23T10:12:22.446Z,308.87
2019-05-23T10:13:36.048Z,309.82
2019-05-23T10:14:20.703Z,308.60
2019-05-23T10:15:19.684Z,311.15
2019-05-23T10:16:19.664Z,309.42
2019-05-23T10:17:19.686Z,309.70
2019-05-23T10:18:19.655Z,310.60
2019-05-23T10:19:19.634Z,310.99
2019-05-23T10:20:19.623Z,310.59
2019-05-23T10:21:19.615Z,309.57
2019-05-23T10:22:19.599Z,310.64
2019-05-23T10:23:19.597Z,310.01
2019-05-23T10:24:19.628Z,309.72
2019-05-23T10:25:19.599Z,309.50
2019-05-23T10:26:19.557Z,311.56
2019-05-23T10:27:19.546Z,310.01
2019-05-23T10:28:19.532Z,309.50
2019-05-23T10:29:19.523Z,310.15
2019-05-23T10:30:19.509Z,311.26
2019-05-23T10:31:19.495Z,309.90
2019-05-23T10:32:19.504Z,310.31
2019-05-23T10:33:19.499Z,312.31
2019-05-23T10:34:19.467Z,310.14
2019-05-23T10:35:19.468Z,310.48
2019-05-23T10:36:19.459Z,310.39
2019-05-23T10:37:19.519Z,309.93
2019-05-23T10:38:19.423Z,309.67
2019-05-23T10:39:19.409Z,308.37
2019-05-23T10:40:19.417Z,308.03
2019-05-23T10:41:19.398Z,309.67
2019-05-23T10:42:19.378Z,310.52
2019-05-23T10:43:19.362Z,310.12
2019-05-23T10:44:19.364Z,309.32
2019-05-23T10:45:19.337Z,309.50
2019-05-23T10:46:19.360Z,308.81
2019-05-23T10:47:19.315Z,308.26
2019-05-23T10:48:19.325Z,309.39
2019-05-23T10:49:19.300Z,307.98
2019-05-23T10:50:19.285Z,308.89
2019-05-23T10:51:19.293Z,308.33
2019-05-23T10:52:19.271Z,309.50
2019-05-23T10:53:19.306Z,309.78
2019-05-23T10:54:19.303Z,309.78
2019-05-23T10:55:19.254Z,308.97
2019-05-23T10:56:20.580Z,309.12
2019-05-23T10:57:19.204Z,310.12
2019-05-23T10:58:19.236Z,307.87
2019-05-23T10:59:19.226Z,310.11
2019-05-23T11:00:19.173Z,309.22
2019-05-23T11:01:19.160Z,310.07
2019-05-23T11:02:19.154Z,309.56
2019-05-23T11:03:19.185Z,309.83
2019-05-23T11:04:19.130Z,309.84
2019-05-23T11:05:19.120Z,310.99
2019-05-23T11:06:19.105Z,311.05
2019-05-23T11:07:19.094Z,308.92
2019-05-23T11:08:19.094Z,309.84
2019-05-23T11:09:36.193Z,310.25
2019-05-23T11:10:20.065Z,310.80
2019-05-23T11:11:19.072Z,310.84
2019-05-23T11:12:19.036Z,310.75
2019-05-23T11:13:19.034Z,311.08
2019-05-23T11:14:19.025Z,310.85
2019-05-23T11:15:19.026Z,312.14
2019-05-23T11:16:18.997Z,311.53
2019-05-23T11:17:18.975Z,311.10
2019-05-23T11:18:18.988Z,308.64
2019-05-23T11:19:18.958Z,311.27
2019-05-23T11:20:18.952Z,309.21
2019-05-23T11:21:18.946Z,310.28
2019-05-23T11:22:18.922Z,311.41
2019-05-23T11:23:18.937Z,312.52
2019-05-23T11:24:18.899Z,313.61
2019-05-23T11:25:18.905Z,311.21
2019-05-23T11:26:18.888Z,312.00
2019-05-23T11:27:18.874Z,309.78
2019-05-23T11:28:18.856Z,312.91
2019-05-23T11:29:18.868Z,310.90
2019-05-23T11:30:18.841Z,310.92
2019-05-23T11:31:18.857Z,310.59
2019-05-23T11:32:20.171Z,312.65
2019-05-23T11:33:18.805Z,311.33
2019-05-23T11:34:18.811Z,313.05
2019-05-23T11:35:18.817Z,312.95
2019-05-23T11:36:33.914Z,311.47
2019-05-23T11:37:19.754Z,313.79
2019-05-23T11:38:18.747Z,312.60
2019-05-23T11:39:18.726Z,312.02
2019-05-23T11:40:18.720Z,309.71
2019-05-23T11:41:18.764Z,309.84
2019-05-23T11:42:18.720Z,313.09
2019-05-23T11:43:18.702Z,309.88
2019-05-23T11:44:18.677Z,310.57
2019-05-23T11:45:18.668Z,310.95
2019-05-23T11:46:18.654Z,311.45
2019-05-23T11:47:18.644Z,310.50
2019-05-23T11:48:18.640Z,311.83
2019-05-23T11:49:18.642Z,311.38
2019-05-23T11:50:18.609Z,313.27
2019-05-23T11:51:18.603Z,316.31
2019-05-23T11:52:18.590Z,311.53
2019-05-23T11:53:18.607Z,310.12
2019-05-23T11:54:18.562Z,309.83
2019-05-23T11:55:18.556Z,311.06
2019-05-23T11:56:18.549Z,310.13
2019-05-23T11:57:18.562Z,309.67
2019-05-23T11:58:18.524Z,310.11
2019-05-23T11:59:18.653Z,311.62
2019-05-23T12:00:18.787Z,311.45
2019-05-23T12:01:21.311Z,311.38
2019-05-23T12:02:18.480Z,313.33
2019-05-23T12:03:18.487Z,310.63
2019-05-23T12:04:18.452Z,310.93
2019-05-23T12:05:18.444Z,311.22
2019-05-23T12:06:18.487Z,311.73
2019-05-23T12:07:18.417Z,309.28
2019-05-23T12:08:18.405Z,310.47
2019-05-23T12:09:18.490Z,310.70
2019-05-23T12:10:18.441Z,310.79
2019-05-23T12:11:18.369Z,309.87
2019-05-23T12:12:18.367Z,311.37
2019-05-23T12:13:18.351Z,310.76
2019-05-23T12:14:18.341Z,310.74
2019-05-23T12:15:18.332Z,310.82
2019-05-23T12:16:18.334Z,310.36
2019-05-23T12:17:18.311Z,310.42
2019-05-23T12:18:18.299Z,311.61
2019-05-23T12:19:18.297Z,312.14
2019-05-23T12:20:18.271Z,312.43
2019-05-23T12:21:18.274Z,313.07
2019-05-23T12:22:18.250Z,312.53
2019-05-23T12:23:18.236Z,310.89
2019-05-23T12:24:18.232Z,310.90
2019-05-23T12:25:22.578Z,311.86
2019-05-23T12:26:18.212Z,314.98
2019-05-23T12:27:18.200Z,315.98
2019-05-23T12:28:18.215Z,315.36